Terminal Aerodrome Forecast
Issued by NWS Sioux Falls, SD

Home | Current Version | Previous Version | Graphics & Text | Print | Product List | Glossary On
Versions: 1 2 3 4 5 6 7 8 9 10 11 12 13 14
000
FTUS43 KFSD 131000 AAB
TAFFSD
TAF AMD
KFSD 131039Z 1311/1406 01017G24KT P6SM OVC010
     FM131500 36019G30KT P6SM -RA BKN015 OVC060
     FM131900 01021G29KT P6SM SCT025 OVC070
     FM132100 36023G34KT P6SM BKN100
     FM140200 36019G28KT P6SM BKN120=

USA.gov is the U.S. government's official web portal to all federal, state and local government web resources and services.